createdAt,value
2022-10-26T00:02:05.412Z,100316.68
2022-10-26T00:04:36.308Z,100319.85
2022-10-26T00:07:04.876Z,100319.68
2022-10-26T00:09:36.438Z,100319.73
2022-10-26T00:12:05.744Z,100320.55
2022-10-26T00:14:37.837Z,100319.55
2022-10-26T00:17:07.133Z,100318.49
2022-10-26T00:19:38.560Z,100319.89
2022-10-26T00:22:07.568Z,100317.84
2022-10-26T00:24:38.657Z,100316.61
2022-10-26T00:27:07.436Z,100318.87
2022-10-26T00:29:37.977Z,100318.10
2022-10-26T00:32:07.143Z,100318.42
2022-10-26T00:34:35.966Z,100319.72
2022-10-26T00:37:08.119Z,100320.67
2022-10-26T00:39:37.085Z,100324.86
2022-10-26T00:42:07.777Z,100324.66
2022-10-26T00:44:49.928Z,100324.13
2022-10-26T00:47:45.519Z,100324.02
2022-10-26T00:50:20.604Z,100322.80
2022-10-26T00:52:52.312Z,100320.98
2022-10-26T00:55:29.236Z,100319.23
2022-10-26T00:58:02.727Z,100316.64
2022-10-26T01:00:34.164Z,100317.16
2022-10-26T01:03:11.149Z,100317.92
2022-10-26T01:05:43.022Z,100319.06
2022-10-26T01:08:13.617Z,100320.27
2022-10-26T01:10:44.358Z,100319.89
2022-10-26T01:13:15.773Z,100318.61
2022-10-26T01:15:47.380Z,100315.55
2022-10-26T01:18:53.571Z,100313.95
2022-10-26T01:22:05.122Z,100312.80
2022-10-26T01:25:11.266Z,100319.79
2022-10-26T01:27:43.778Z,100312.77
2022-10-26T01:30:19.776Z,100314.04
2022-10-26T01:33:15.350Z,100317.00
2022-10-26T01:36:06.076Z,100317.79
2022-10-26T01:39:09.266Z,100324.20
2022-10-26T01:42:02.357Z,100327.14
2022-10-26T01:44:40.089Z,100326.42
2022-10-26T01:47:15.243Z,100327.73
2022-10-26T01:49:50.158Z,100326.23
2022-10-26T01:52:20.454Z,100321.84
2022-10-26T01:54:49.734Z,100320.40
2022-10-26T01:57:21.900Z,100322.13
2022-10-26T02:00:11.840Z,100325.61
2022-10-26T02:03:04.913Z,100325.15
2022-10-26T02:05:53.935Z,100328.09
2022-10-26T02:08:54.851Z,100330.04
2022-10-26T02:11:39.645Z,100324.39
2022-10-26T02:17:06.661Z,100329.21
2022-10-26T02:19:46.480Z,100328.91
2022-10-26T02:22:29.413Z,100331.58
2022-10-26T02:25:02.329Z,100329.08
2022-10-26T02:27:37.334Z,100328.52
2022-10-26T02:30:06.766Z,100327.71
2022-10-26T02:32:38.256Z,100326.19
2022-10-26T02:35:09.582Z,100326.02
2022-10-26T02:37:41.533Z,100330.85
2022-10-26T02:40:14.625Z,100332.91
2022-10-26T02:42:47.878Z,100335.65
2022-10-26T02:45:39.865Z,100339.34
2022-10-26T02:48:09.573Z,100336.28
2022-10-26T02:51:13.483Z,100339.03
2022-10-26T02:53:46.260Z,100335.13
2022-10-26T02:56:29.539Z,100337.39
2022-10-26T02:59:04.205Z,100340.20
2022-10-26T03:01:36.906Z,100340.41
2022-10-26T03:04:06.998Z,100343.08
2022-10-26T03:06:35.891Z,100340.83
2022-10-26T03:09:06.357Z,100341.98
2022-10-26T03:11:41.534Z,100340.92
2022-10-26T03:14:10.756Z,100341.99
2022-10-26T03:16:39.554Z,100345.25
2022-10-26T03:19:09.941Z,100346.05
2022-10-26T03:21:40.100Z,100346.73
2022-10-26T03:24:10.588Z,100353.96
2022-10-26T03:26:40.948Z,100359.27
2022-10-26T03:29:12.190Z,100361.23
2022-10-26T03:31:42.722Z,100370.15
2022-10-26T03:34:11.342Z,100376.58
2022-10-26T03:36:39.975Z,100378.02
2022-10-26T03:39:09.690Z,100377.73
2022-10-26T03:41:38.292Z,100380.54
2022-10-26T03:44:07.591Z,100384.47
2022-10-26T03:46:37.287Z,100378.92
2022-10-26T03:49:07.686Z,100383.05
2022-10-26T03:51:36.324Z,100391.89
2022-10-26T03:54:06.310Z,100397.44
2022-10-26T03:56:37.474Z,100402.17
2022-10-26T03:59:08.501Z,100401.86
2022-10-26T04:01:39.357Z,100399.36
2022-10-26T04:05:00.008Z,100398.75
2022-10-26T04:07:30.471Z,100399.48
2022-10-26T04:10:03.108Z,100403.51
2022-10-26T04:12:38.822Z,100400.45
2022-10-26T04:15:08.792Z,100398.28
2022-10-26T04:17:39.676Z,100398.23
2022-10-26T04:20:09.395Z,100394.32
2022-10-26T04:22:44.714Z,100400.75
2022-10-26T04:25:14.884Z,100401.25
2022-10-26T04:27:43.468Z,100400.76
2022-10-26T04:30:14.284Z,100404.26
2022-10-26T04:32:43.154Z,100404.36
2022-10-26T04:35:15.325Z,100402.70
2022-10-26T04:37:44.604Z,100403.64
2022-10-26T04:40:13.838Z,100403.38
2022-10-26T04:42:47.464Z,100401.95
2022-10-26T04:45:17.366Z,100401.95
2022-10-26T04:47:46.036Z,100401.14
2022-10-26T04:50:18.285Z,100396.39
2022-10-26T04:52:51.441Z,100399.61
2022-10-26T04:55:22.039Z,100399.27
2022-10-26T04:57:55.856Z,100403.32
2022-10-26T05:00:28.162Z,100406.70
2022-10-26T05:03:48.896Z,100402.52
2022-10-26T05:06:18.977Z,100402.90
2022-10-26T05:08:51.113Z,100404.25
2022-10-26T05:11:20.287Z,100400.52
2022-10-26T05:13:49.749Z,100404.33
2022-10-26T05:16:19.040Z,100409.48
2022-10-26T05:18:52.264Z,100414.29
2022-10-26T05:21:24.614Z,100420.80
2022-10-26T05:23:55.762Z,100422.95
2022-10-26T05:26:26.493Z,100416.52
2022-10-26T05:28:58.323Z,100422.50
2022-10-26T05:31:30.238Z,100431.73
2022-10-26T05:34:00.551Z,100429.52
2022-10-26T05:36:30.262Z,100425.71
2022-10-26T05:39:01.930Z,100426.89
2022-10-26T05:41:30.888Z,100434.71
2022-10-26T05:44:00.668Z,100437.76
2022-10-26T05:46:29.524Z,100441.03
2022-10-26T05:49:01.762Z,100448.58
2022-10-26T05:51:34.606Z,100457.14
2022-10-26T05:54:04.843Z,100462.05
2022-10-26T05:56:44.912Z,100467.17
2022-10-26T05:59:17.730Z,100469.34
2022-10-26T06:02:25.761Z,100473.27
2022-10-26T06:05:02.882Z,100481.02
2022-10-26T06:07:33.601Z,100484.20
2022-10-26T06:10:04.011Z,100484.52
2022-10-26T06:12:32.925Z,100486.27
2022-10-26T06:15:03.097Z,100487.03
2022-10-26T06:18:21.874Z,100488.90
2022-10-26T06:21:14.283Z,100492.56
2022-10-26T06:24:03.237Z,100495.00
2022-10-26T06:26:48.841Z,100495.30
2022-10-26T06:29:25.774Z,100495.03
2022-10-26T06:31:55.543Z,100495.69
2022-10-26T06:34:33.599Z,100496.60
2022-10-26T06:37:04.613Z,100497.30
2022-10-26T06:39:43.676Z,100496.70
2022-10-26T06:42:14.881Z,100496.67
2022-10-26T06:44:45.882Z,100491.50
2022-10-26T06:47:34.411Z,100491.41
2022-10-26T06:50:57.554Z,100487.54
2022-10-26T06:56:13.856Z,100497.37
2022-10-26T06:58:46.054Z,100497.64
2022-10-26T07:01:22.650Z,100496.85
2022-10-26T07:03:59.773Z,100494.31
2022-10-26T07:06:31.734Z,100497.04
2022-10-26T07:09:06.053Z,100502.29
2022-10-26T07:11:38.893Z,100505.81
2022-10-26T07:14:09.276Z,100505.70
2022-10-26T07:16:42.073Z,100510.05
2022-10-26T07:19:11.254Z,100513.23
2022-10-26T07:21:40.163Z,100513.89
2022-10-26T07:24:10.701Z,100518.61
2022-10-26T07:26:44.514Z,100522.98
2022-10-26T07:29:14.993Z,100523.47
2022-10-26T07:31:46.134Z,100529.92
2022-10-26T07:34:17.203Z,100526.16
2022-10-26T07:36:59.633Z,100526.02
2022-10-26T07:39:47.397Z,100529.64
2022-10-26T07:42:26.352Z,100530.23
2022-10-26T07:44:57.864Z,100529.02
2022-10-26T07:47:37.184Z,100524.48
2022-10-26T07:50:13.819Z,100528.53
2022-10-26T07:52:55.132Z,100533.50
2022-10-26T07:55:27.241Z,100538.77
2022-10-26T07:58:02.528Z,100537.52
2022-10-26T08:00:36.932Z,100542.58
2022-10-26T08:03:12.282Z,100542.14
2022-10-26T08:05:56.481Z,100548.14
2022-10-26T08:08:30.662Z,100547.35
2022-10-26T08:11:03.428Z,100545.67
2022-10-26T08:13:36.123Z,100549.38
2022-10-26T08:16:08.789Z,100558.08
2022-10-26T08:18:38.888Z,100559.40
2022-10-26T08:21:21.841Z,100559.86
2022-10-26T08:23:59.967Z,100566.30
2022-10-26T08:26:31.114Z,100567.48
2022-10-26T08:29:01.756Z,100566.98
2022-10-26T08:31:32.976Z,100570.65
2022-10-26T08:34:04.840Z,100574.08
2022-10-26T08:36:35.939Z,100577.09
2022-10-26T08:39:05.850Z,100575.64
2022-10-26T08:41:42.912Z,100577.19
2022-10-26T08:44:47.763Z,100572.94
2022-10-26T08:47:29.195Z,100573.98
2022-10-26T08:50:53.693Z,100580.23
2022-10-26T08:54:01.993Z,100584.39
2022-10-26T08:56:57.100Z,100589.47
2022-10-26T08:59:38.001Z,100588.44
2022-10-26T09:02:17.777Z,100589.79
2022-10-26T09:04:47.543Z,100590.21
2022-10-26T09:07:47.320Z,100589.20
2022-10-26T09:10:39.036Z,100592.27
2022-10-26T09:13:45.560Z,100595.02
2022-10-26T09:16:44.527Z,100599.50
2022-10-26T09:19:22.299Z,100600.67
2022-10-26T09:22:16.215Z,100602.64
2022-10-26T09:24:56.004Z,100606.98
2022-10-26T09:27:24.918Z,100611.35
2022-10-26T09:29:57.261Z,100611.29
2022-10-26T09:32:39.645Z,100610.14
2022-10-26T09:35:23.010Z,100614.85
2022-10-26T09:38:03.597Z,100615.91
2022-10-26T09:40:56.691Z,100612.57
2022-10-26T09:43:33.814Z,100617.19
2022-10-26T09:46:02.657Z,100615.18
2022-10-26T09:48:41.740Z,100617.52
2022-10-26T09:51:11.751Z,100618.88
2022-10-26T09:53:40.808Z,100622.26
2022-10-26T09:56:12.583Z,100618.64
2022-10-26T09:58:47.792Z,100623.55
2022-10-26T10:01:38.258Z,100623.79
2022-10-26T10:04:18.871Z,100623.85
2022-10-26T10:06:50.169Z,100628.30
2022-10-26T10:09:22.029Z,100630.21
2022-10-26T10:12:06.591Z,100629.88
2022-10-26T10:14:45.968Z,100626.95
2022-10-26T10:17:33.585Z,100629.48
2022-10-26T10:20:22.884Z,100633.27
2022-10-26T10:23:06.179Z,100638.77
2022-10-26T10:25:42.447Z,100640.90
2022-10-26T10:28:25.170Z,100637.83
2022-10-26T10:31:06.858Z,100636.20
2022-10-26T10:33:41.281Z,100636.70
2022-10-26T10:36:20.323Z,100637.04
2022-10-26T10:38:51.615Z,100634.72
2022-10-26T10:41:31.108Z,100638.23
2022-10-26T10:44:28.617Z,100640.54
2022-10-26T10:47:03.854Z,100642.04
2022-10-26T10:49:34.517Z,100640.10
2022-10-26T10:52:03.565Z,100646.24
2022-10-26T10:54:41.141Z,100646.55
2022-10-26T10:57:47.006Z,100649.20
2022-10-26T11:00:26.448Z,100644.45
2022-10-26T11:03:47.264Z,100645.92
2022-10-26T11:10:50.527Z,100647.46
2022-10-26T11:13:35.119Z,100648.79
2022-10-26T11:16:14.465Z,100650.52
2022-10-26T11:18:50.935Z,100649.89
2022-10-26T11:21:27.081Z,100649.73
2022-10-26T11:24:14.236Z,100649.34
2022-10-26T11:26:55.973Z,100651.14
2022-10-26T11:29:30.347Z,100654.33
2022-10-26T11:32:38.656Z,100659.29
2022-10-26T11:35:37.128Z,100660.00
2022-10-26T11:38:38.856Z,100664.00
2022-10-26T11:41:36.629Z,100673.27
2022-10-26T11:44:23.854Z,100669.96
2022-10-26T11:47:19.160Z,100670.52
2022-10-26T11:49:47.916Z,100669.06
2022-10-26T11:52:35.215Z,100662.95
2022-10-26T11:55:05.263Z,100664.41
2022-10-26T11:57:38.414Z,100662.73
2022-10-26T12:00:17.681Z,100660.48
2022-10-26T12:02:56.238Z,100659.93
2022-10-26T12:05:34.329Z,100661.30
2022-10-26T12:08:16.883Z,100661.23
2022-10-26T12:10:53.034Z,100663.52
2022-10-26T12:13:35.769Z,100660.09
2022-10-26T12:16:30.640Z,100662.48
2022-10-26T12:19:05.664Z,100659.42
2022-10-26T12:21:38.415Z,100660.67
2022-10-26T12:24:47.487Z,100660.86
2022-10-26T12:27:54.788Z,100663.16
2022-10-26T12:30:33.839Z,100662.56
2022-10-26T12:33:30.140Z,100660.24
2022-10-26T12:36:02.599Z,100666.31
2022-10-26T12:38:33.806Z,100666.22
2022-10-26T12:41:28.427Z,100668.36
2022-10-26T12:43:59.190Z,100668.61
2022-10-26T12:46:39.485Z,100672.20
2022-10-26T12:49:47.945Z,100672.21
2022-10-26T12:52:28.887Z,100675.14
2022-10-26T12:55:12.828Z,100674.77
2022-10-26T12:58:07.411Z,100672.69
2022-10-26T13:00:46.496Z,100676.29
2022-10-26T13:03:34.557Z,100673.61
2022-10-26T13:06:34.103Z,100672.86
2022-10-26T13:09:14.102Z,100674.55
2022-10-26T13:11:53.145Z,100675.73
2022-10-26T13:14:37.941Z,100678.51
2022-10-26T13:17:07.540Z,100680.36
2022-10-26T13:19:48.123Z,100676.77
2022-10-26T13:22:23.334Z,100676.34
2022-10-26T13:25:06.409Z,100674.96
2022-10-26T13:27:35.308Z,100677.70
2022-10-26T13:30:03.928Z,100676.03
2022-10-26T13:32:36.965Z,100675.58
2022-10-26T13:35:12.338Z,100667.38
2022-10-26T13:37:47.382Z,100673.41
2022-10-26T13:40:22.707Z,100672.17
2022-10-26T13:42:57.492Z,100675.27
2022-10-26T13:45:30.359Z,100674.77
2022-10-26T13:48:25.306Z,100679.35
2022-10-26T13:51:02.170Z,100677.98
2022-10-26T13:53:56.120Z,100680.74
2022-10-26T13:56:49.724Z,100676.65
2022-10-26T14:02:14.501Z,100679.88
2022-10-26T14:04:48.965Z,100676.05
2022-10-26T14:07:29.813Z,100678.71
2022-10-26T14:10:00.499Z,100678.09
2022-10-26T14:12:30.114Z,100673.13
2022-10-26T14:15:09.014Z,100675.70
2022-10-26T14:17:38.625Z,100677.66
2022-10-26T14:20:20.754Z,100677.27
2022-10-26T14:22:52.623Z,100680.30
2022-10-26T14:25:36.250Z,100680.19
2022-10-26T14:28:24.413Z,100684.88
2022-10-26T14:31:12.988Z,100682.95
2022-10-26T14:33:44.289Z,100682.25
2022-10-26T14:36:15.868Z,100683.55
2022-10-26T14:38:50.345Z,100692.57
2022-10-26T14:41:20.987Z,100694.76
2022-10-26T14:43:52.137Z,100697.30
2022-10-26T14:46:25.845Z,100701.52
2022-10-26T14:49:01.790Z,100705.12
2022-10-26T14:51:37.497Z,100701.64
2022-10-26T14:54:19.614Z,100702.60
2022-10-26T14:56:51.887Z,100702.44
2022-10-26T14:59:28.209Z,100700.95
2022-10-26T15:02:22.855Z,100704.04
2022-10-26T15:05:42.707Z,100708.31
2022-10-26T15:08:55.832Z,100713.98
2022-10-26T15:11:28.166Z,100715.53
2022-10-26T15:14:01.298Z,100716.29
2022-10-26T15:16:41.263Z,100717.12
2022-10-26T15:19:13.150Z,100713.77
2022-10-26T15:21:51.192Z,100717.35
2022-10-26T15:24:37.421Z,100715.29
2022-10-26T15:27:18.937Z,100716.83
2022-10-26T15:29:53.030Z,100715.08
2022-10-26T15:32:33.281Z,100715.67
2022-10-26T15:35:12.630Z,100720.13
2022-10-26T15:37:42.761Z,100725.15
2022-10-26T15:40:15.149Z,100727.30
2022-10-26T15:42:46.823Z,100724.79
2022-10-26T15:45:26.967Z,100725.98
2022-10-26T15:47:58.814Z,100727.55
2022-10-26T15:50:32.107Z,100727.44
2022-10-26T15:53:04.024Z,100730.15
2022-10-26T15:55:34.170Z,100732.41
2022-10-26T15:58:04.682Z,100732.27
2022-10-26T16:00:34.920Z,100735.61
2022-10-26T16:03:14.654Z,100740.31
2022-10-26T16:05:45.174Z,100739.89
2022-10-26T16:08:18.518Z,100743.36
2022-10-26T16:10:49.265Z,100743.80
2022-10-26T16:13:18.334Z,100747.61
2022-10-26T16:15:48.072Z,100744.51
2022-10-26T16:18:18.246Z,100744.89
2022-10-26T16:20:52.621Z,100744.43
2022-10-26T16:23:22.958Z,100746.66
2022-10-26T16:25:53.936Z,100745.88
2022-10-26T16:28:23.655Z,100750.09
2022-10-26T16:31:00.695Z,100753.70
2022-10-26T16:33:30.252Z,100751.84
2022-10-26T16:36:00.400Z,100756.00
2022-10-26T16:38:33.423Z,100754.50
2022-10-26T16:41:05.165Z,100758.05
2022-10-26T16:43:37.416Z,100758.14
2022-10-26T16:46:18.588Z,100760.32
2022-10-26T16:48:50.978Z,100759.42
2022-10-26T16:51:28.077Z,100759.73
2022-10-26T16:53:59.897Z,100760.68
2022-10-26T16:56:31.034Z,100761.85
2022-10-26T16:59:02.374Z,100768.98
2022-10-26T17:01:32.863Z,100767.96
2022-10-26T17:06:33.559Z,100773.75
2022-10-26T17:09:02.874Z,100779.10
2022-10-26T17:11:32.328Z,100778.61
2022-10-26T17:14:01.496Z,100781.47
2022-10-26T17:16:32.838Z,100782.42
2022-10-26T17:19:03.548Z,100785.45
2022-10-26T17:21:35.649Z,100788.82
2022-10-26T17:24:07.598Z,100790.27
2022-10-26T17:26:39.397Z,100791.58
2022-10-26T17:29:16.242Z,100794.80
2022-10-26T17:31:50.584Z,100798.94
2022-10-26T17:34:24.720Z,100801.41
2022-10-26T17:36:55.046Z,100805.25
2022-10-26T17:39:25.698Z,100803.67
2022-10-26T17:41:57.718Z,100808.48
2022-10-26T17:44:27.814Z,100812.55
2022-10-26T17:46:59.898Z,100811.35
2022-10-26T17:49:35.800Z,100808.35
2022-10-26T17:52:08.875Z,100812.69
2022-10-26T17:54:41.329Z,100815.05
2022-10-26T17:57:14.805Z,100817.55
2022-10-26T17:59:49.468Z,100817.73
2022-10-26T18:02:29.265Z,100819.91
2022-10-26T18:05:03.834Z,100821.77
2022-10-26T18:07:43.084Z,100824.38
2022-10-26T18:10:37.670Z,100828.54
2022-10-26T18:13:21.074Z,100829.05
2022-10-26T18:15:59.787Z,100831.89
2022-10-26T18:18:34.076Z,100826.34
2022-10-26T18:21:16.135Z,100830.81
2022-10-26T18:23:48.475Z,100828.20
2022-10-26T18:26:20.623Z,100828.98
2022-10-26T18:28:50.615Z,100829.72
2022-10-26T18:31:28.102Z,100833.28
2022-10-26T18:34:00.587Z,100837.16
2022-10-26T18:36:33.323Z,100834.15
2022-10-26T18:39:04.844Z,100836.92
2022-10-26T18:41:42.427Z,100840.56
2022-10-26T18:44:15.660Z,100841.66
2022-10-26T18:46:52.886Z,100846.02
2022-10-26T18:49:24.696Z,100845.78
2022-10-26T18:52:04.685Z,100845.40
2022-10-26T18:54:41.975Z,100846.73
2022-10-26T18:57:12.959Z,100848.41
2022-10-26T18:59:44.663Z,100850.16
2022-10-26T19:02:18.708Z,100852.24
2022-10-26T19:04:54.639Z,100854.70
2022-10-26T19:07:30.325Z,100852.12
2022-10-26T19:10:03.610Z,100858.25
2022-10-26T19:12:34.017Z,100858.59
2022-10-26T19:15:06.928Z,100856.55
2022-10-26T19:17:37.816Z,100859.27
2022-10-26T19:20:11.273Z,100861.50
2022-10-26T19:22:41.971Z,100866.02
2022-10-26T19:25:14.675Z,100868.48
2022-10-26T19:27:47.368Z,100875.15
2022-10-26T19:30:18.708Z,100873.08
2022-10-26T19:32:54.684Z,100877.00
2022-10-26T19:35:24.896Z,100879.27
2022-10-26T19:37:56.435Z,100884.65
2022-10-26T19:40:27.635Z,100892.27
2022-10-26T19:43:03.783Z,100894.91
2022-10-26T19:45:35.145Z,100897.42
2022-10-26T19:48:06.855Z,100902.00
2022-10-26T19:50:43.756Z,100907.33
2022-10-26T19:53:17.943Z,100907.23
2022-10-26T19:55:48.845Z,100906.81
2022-10-26T19:58:22.026Z,100910.37
2022-10-26T20:00:59.715Z,100916.85
2022-10-26T20:03:56.965Z,100923.84
2022-10-26T20:06:29.435Z,100924.27
2022-10-26T20:08:59.727Z,100927.11
2022-10-26T20:11:33.005Z,100931.44
2022-10-26T20:14:06.668Z,100931.43
2022-10-26T20:16:38.894Z,100929.00
2022-10-26T20:19:09.354Z,100935.89
2022-10-26T20:21:41.147Z,100936.20
2022-10-26T20:24:11.570Z,100938.41
2022-10-26T20:26:44.604Z,100937.13
2022-10-26T20:29:16.087Z,100934.58
2022-10-26T20:31:49.830Z,100931.70
2022-10-26T20:34:25.663Z,100929.24
2022-10-26T20:36:56.901Z,100928.33
2022-10-26T20:39:27.749Z,100934.29
2022-10-26T20:42:00.025Z,100935.31
2022-10-26T20:44:36.078Z,100936.11
2022-10-26T20:47:06.475Z,100938.70
2022-10-26T20:49:38.536Z,100938.21
2022-10-26T20:52:21.072Z,100934.58
2022-10-26T20:55:28.823Z,100935.60
2022-10-26T20:58:09.349Z,100934.69
2022-10-26T21:00:45.800Z,100938.69
2022-10-26T21:07:42.797Z,100936.46
2022-10-26T21:10:13.768Z,100944.21
2022-10-26T21:12:46.060Z,100948.45
2022-10-26T21:15:15.955Z,100948.95
2022-10-26T21:17:45.387Z,100950.20
2022-10-26T21:20:15.434Z,100949.80
2022-10-26T21:22:44.516Z,100945.02
2022-10-26T21:25:14.884Z,100946.71
2022-10-26T21:27:43.827Z,100946.47
2022-10-26T21:30:13.887Z,100943.88
2022-10-26T21:32:48.693Z,100945.13
2022-10-26T21:35:18.836Z,100949.15
2022-10-26T21:37:49.549Z,100950.03
2022-10-26T21:40:19.088Z,100958.91
2022-10-26T21:42:52.742Z,100954.79
2022-10-26T21:45:23.106Z,100956.92
2022-10-26T21:47:53.055Z,100953.11
2022-10-26T21:50:24.338Z,100951.58
2022-10-26T21:52:55.028Z,100948.46
2022-10-26T21:55:25.445Z,100947.97
2022-10-26T21:57:54.868Z,100943.23
2022-10-26T22:00:24.060Z,100944.92
2022-10-26T22:04:07.604Z,100942.89
2022-10-26T22:06:36.650Z,100944.25
2022-10-26T22:09:09.168Z,100946.21
2022-10-26T22:11:38.692Z,100945.69
2022-10-26T22:14:08.863Z,100943.70
2022-10-26T22:16:38.238Z,100940.67
2022-10-26T22:19:08.528Z,100943.75
2022-10-26T22:21:41.530Z,100945.50
2022-10-26T22:24:12.829Z,100945.41
2022-10-26T22:26:44.917Z,100946.99
2022-10-26T22:29:13.898Z,100948.73
2022-10-26T22:31:45.139Z,100946.17
2022-10-26T22:34:16.993Z,100946.45
2022-10-26T22:36:46.096Z,100945.01
2022-10-26T22:39:15.998Z,100943.70
2022-10-26T22:41:48.581Z,100945.70
2022-10-26T22:44:21.458Z,100943.73
2022-10-26T22:46:52.467Z,100942.67
2022-10-26T22:49:21.318Z,100943.64
2022-10-26T22:51:50.229Z,100948.54
2022-10-26T22:54:20.288Z,100949.42
2022-10-26T22:56:50.210Z,100949.41
2022-10-26T22:59:21.728Z,100947.60
2022-10-26T23:01:52.592Z,100951.39
2022-10-26T23:04:23.028Z,100952.41
2022-10-26T23:06:52.742Z,100953.69
2022-10-26T23:09:22.740Z,100953.36
2022-10-26T23:11:53.489Z,100951.77
2022-10-26T23:14:24.618Z,100945.52
2022-10-26T23:16:54.351Z,100944.10
2022-10-26T23:19:24.128Z,100946.96
2022-10-26T23:21:53.218Z,100946.06
2022-10-26T23:24:22.508Z,100951.42
2022-10-26T23:26:52.178Z,100957.55
2022-10-26T23:29:21.797Z,100957.58
2022-10-26T23:31:54.326Z,100960.23
2022-10-26T23:34:25.806Z,100960.88
2022-10-26T23:36:56.047Z,100963.55
2022-10-26T23:39:27.355Z,100965.98
2022-10-26T23:41:57.406Z,100966.96
2022-10-26T23:44:27.071Z,100967.80
2022-10-26T23:46:57.251Z,100965.14
2022-10-26T23:49:28.324Z,100963.94
2022-10-26T23:51:58.688Z,100960.59
2022-10-26T23:54:28.898Z,100963.92
2022-10-26T23:57:00.978Z,100963.98
2022-10-26T23:59:30.208Z,100965.27
